sensor_id;sensor_type;location;lat;lon;timestamp;P1;durP1;ratioP1;P2;durP2;ratioP2
70455;SDS011;57916;51.996;5.180;2024-01-30T00:00:29;25.02;;;12.32;;
70455;SDS011;57916;51.996;5.180;2024-01-30T00:02:55;22.38;;;12.18;;
70455;SDS011;57916;51.996;5.180;2024-01-30T00:05:22;19.63;;;11.85;;
70455;SDS011;57916;51.996;5.180;2024-01-30T00:07:50;18.10;;;10.90;;
70455;SDS011;57916;51.996;5.180;2024-01-30T00:10:17;18.52;;;11.18;;
70455;SDS011;57916;51.996;5.180;2024-01-30T00:12:44;18.63;;;11.60;;
70455;SDS011;57916;51.996;5.180;2024-01-30T00:15:11;18.90;;;11.27;;
70455;SDS011;57916;51.996;5.180;2024-01-30T00:17:38;15.02;;;11.02;;
70455;SDS011;57916;51.996;5.180;2024-01-30T00:20:05;16.52;;;10.93;;
70455;SDS011;57916;51.996;5.180;2024-01-30T00:22:33;14.80;;;10.75;;
70455;SDS011;57916;51.996;5.180;2024-01-30T00:25:00;22.07;;;11.07;;
70455;SDS011;57916;51.996;5.180;2024-01-30T00:27:27;20.55;;;11.40;;
70455;SDS011;57916;51.996;5.180;2024-01-30T00:29:54;18.92;;;11.40;;
70455;SDS011;57916;51.996;5.180;2024-01-30T00:32:21;15.25;;;10.38;;
70455;SDS011;57916;51.996;5.180;2024-01-30T00:34:49;15.32;;;10.55;;
70455;SDS011;57916;51.996;5.180;2024-01-30T00:37:17;18.15;;;10.65;;
70455;SDS011;57916;51.996;5.180;2024-01-30T00:39:44;15.25;;;10.32;;
70455;SDS011;57916;51.996;5.180;2024-01-30T00:42:11;17.10;;;10.68;;
70455;SDS011;57916;51.996;5.180;2024-01-30T00:44:38;18.85;;;10.30;;
70455;SDS011;57916;51.996;5.180;2024-01-30T00:47:05;14.40;;;10.52;;
70455;SDS011;57916;51.996;5.180;2024-01-30T00:49:32;17.67;;;10.07;;
70455;SDS011;57916;51.996;5.180;2024-01-30T00:52:00;15.55;;;10.00;;
70455;SDS011;57916;51.996;5.180;2024-01-30T00:54:27;15.60;;;10.13;;
70455;SDS011;57916;51.996;5.180;2024-01-30T00:56:54;17.20;;;10.13;;
70455;SDS011;57916;51.996;5.180;2024-01-30T00:59:21;15.45;;;10.38;;
70455;SDS011;57916;51.996;5.180;2024-01-30T01:01:48;17.53;;;10.10;;
70455;SDS011;57916;51.996;5.180;2024-01-30T01:04:15;15.85;;;10.40;;
70455;SDS011;57916;51.996;5.180;2024-01-30T01:06:43;19.00;;;10.80;;
70455;SDS011;57916;51.996;5.180;2024-01-30T01:09:11;13.93;;;10.38;;
70455;SDS011;57916;51.996;5.180;2024-01-30T01:11:38;15.93;;;10.32;;
70455;SDS011;57916;51.996;5.180;2024-01-30T01:14:05;13.75;;;10.60;;
70455;SDS011;57916;51.996;5.180;2024-01-30T01:16:33;17.33;;;10.65;;
70455;SDS011;57916;51.996;5.180;2024-01-30T01:19:00;14.88;;;10.27;;
70455;SDS011;57916;51.996;5.180;2024-01-30T01:21:28;17.95;;;10.60;;
70455;SDS011;57916;51.996;5.180;2024-01-30T01:23:55;16.15;;;10.13;;
70455;SDS011;57916;51.996;5.180;2024-01-30T01:26:22;15.73;;;9.98;;
70455;SDS011;57916;51.996;5.180;2024-01-30T01:28:49;17.20;;;9.73;;
70455;SDS011;57916;51.996;5.180;2024-01-30T01:31:17;15.20;;;10.15;;
70455;SDS011;57916;51.996;5.180;2024-01-30T01:33:44;15.00;;;10.35;;
70455;SDS011;57916;51.996;5.180;2024-01-30T01:36:13;14.48;;;10.10;;
70455;SDS011;57916;51.996;5.180;2024-01-30T01:38:40;16.77;;;10.40;;
70455;SDS011;57916;51.996;5.180;2024-01-30T01:41:07;15.68;;;10.10;;
70455;SDS011;57916;51.996;5.180;2024-01-30T01:43:34;16.35;;;10.10;;
70455;SDS011;57916;51.996;5.180;2024-01-30T01:46:01;17.17;;;10.63;;
70455;SDS011;57916;51.996;5.180;2024-01-30T01:48:29;17.23;;;10.43;;
70455;SDS011;57916;51.996;5.180;2024-01-30T01:50:56;16.30;;;10.45;;
70455;SDS011;57916;51.996;5.180;2024-01-30T01:53:24;18.55;;;10.48;;
70455;SDS011;57916;51.996;5.180;2024-01-30T01:55:52;16.42;;;10.35;;
70455;SDS011;57916;51.996;5.180;2024-01-30T01:58:20;14.48;;;9.85;;
70455;SDS011;57916;51.996;5.180;2024-01-30T02:00:49;18.05;;;10.40;;
70455;SDS011;57916;51.996;5.180;2024-01-30T02:03:17;16.25;;;10.30;;
70455;SDS011;57916;51.996;5.180;2024-01-30T02:05:48;17.50;;;10.02;;
70455;SDS011;57916;51.996;5.180;2024-01-30T02:08:16;16.83;;;10.50;;
70455;SDS011;57916;51.996;5.180;2024-01-30T02:10:44;21.25;;;10.45;;
70455;SDS011;57916;51.996;5.180;2024-01-30T02:13:11;15.10;;;10.18;;
70455;SDS011;57916;51.996;5.180;2024-01-30T02:15:38;14.67;;;9.17;;
70455;SDS011;57916;51.996;5.180;2024-01-30T02:18:06;15.98;;;10.30;;
70455;SDS011;57916;51.996;5.180;2024-01-30T02:20:34;14.48;;;9.98;;
70455;SDS011;57916;51.996;5.180;2024-01-30T02:23:01;18.63;;;11.60;;
70455;SDS011;57916;51.996;5.180;2024-01-30T02:25:38;19.05;;;11.32;;
70455;SDS011;57916;51.996;5.180;2024-01-30T02:28:13;17.23;;;10.88;;
70455;SDS011;57916;51.996;5.180;2024-01-30T02:30:40;17.17;;;10.23;;
70455;SDS011;57916;51.996;5.180;2024-01-30T02:33:09;14.55;;;10.40;;
70455;SDS011;57916;51.996;5.180;2024-01-30T02:35:36;16.25;;;10.85;;
70455;SDS011;57916;51.996;5.180;2024-01-30T02:38:03;17.13;;;10.90;;
70455;SDS011;57916;51.996;5.180;2024-01-30T02:40:31;15.43;;;9.70;;
70455;SDS011;57916;51.996;5.180;2024-01-30T02:42:59;13.82;;;9.95;;
70455;SDS011;57916;51.996;5.180;2024-01-30T02:45:26;15.43;;;10.57;;
70455;SDS011;57916;51.996;5.180;2024-01-30T02:47:53;19.23;;;10.07;;
70455;SDS011;57916;51.996;5.180;2024-01-30T02:50:20;19.77;;;11.43;;
70455;SDS011;57916;51.996;5.180;2024-01-30T02:52:47;13.65;;;9.63;;
70455;SDS011;57916;51.996;5.180;2024-01-30T02:55:14;16.67;;;11.32;;
70455;SDS011;57916;51.996;5.180;2024-01-30T02:57:44;16.77;;;11.20;;
70455;SDS011;57916;51.996;5.180;2024-01-30T03:00:11;21.10;;;11.93;;
70455;SDS011;57916;51.996;5.180;2024-01-30T03:02:39;20.10;;;11.52;;
70455;SDS011;57916;51.996;5.180;2024-01-30T03:05:07;20.03;;;12.10;;
70455;SDS011;57916;51.996;5.180;2024-01-30T03:07:35;21.27;;;11.65;;
70455;SDS011;57916;51.996;5.180;2024-01-30T03:10:02;17.73;;;11.32;;
70455;SDS011;57916;51.996;5.180;2024-01-30T03:12:31;19.52;;;11.15;;
70455;SDS011;57916;51.996;5.180;2024-01-30T03:14:58;16.07;;;11.13;;
70455;SDS011;57916;51.996;5.180;2024-01-30T03:17:25;18.50;;;11.00;;
70455;SDS011;57916;51.996;5.180;2024-01-30T03:19:52;17.75;;;10.32;;
70455;SDS011;57916;51.996;5.180;2024-01-30T03:22:19;15.82;;;10.40;;
70455;SDS011;57916;51.996;5.180;2024-01-30T03:24:46;16.75;;;10.23;;
70455;SDS011;57916;51.996;5.180;2024-01-30T03:27:13;18.45;;;10.40;;
70455;SDS011;57916;51.996;5.180;2024-01-30T03:29:40;16.48;;;10.70;;
70455;SDS011;57916;51.996;5.180;2024-01-30T03:32:07;18.38;;;11.50;;
70455;SDS011;57916;51.996;5.180;2024-01-30T03:34:34;18.35;;;11.85;;
70455;SDS011;57916;51.996;5.180;2024-01-30T03:37:01;18.75;;;12.25;;
70455;SDS011;57916;51.996;5.180;2024-01-30T03:39:28;17.95;;;11.15;;
70455;SDS011;57916;51.996;5.180;2024-01-30T03:41:56;19.90;;;11.50;;
70455;SDS011;57916;51.996;5.180;2024-01-30T03:44:23;18.02;;;11.40;;
70455;SDS011;57916;51.996;5.180;2024-01-30T03:46:50;19.40;;;11.82;;
70455;SDS011;57916;51.996;5.180;2024-01-30T03:49:17;15.40;;;10.82;;
70455;SDS011;57916;51.996;5.180;2024-01-30T03:51:45;19.63;;;10.95;;
70455;SDS011;57916;51.996;5.180;2024-01-30T03:54:14;23.25;;;11.02;;
70455;SDS011;57916;51.996;5.180;2024-01-30T03:56:41;15.70;;;10.63;;
70455;SDS011;57916;51.996;5.180;2024-01-30T03:59:08;17.45;;;10.82;;
70455;SDS011;57916;51.996;5.180;2024-01-30T04:01:35;16.88;;;10.45;;
70455;SDS011;57916;51.996;5.180;2024-01-30T04:04:02;16.03;;;10.30;;
70455;SDS011;57916;51.996;5.180;2024-01-30T04:06:29;17.02;;;9.93;;
70455;SDS011;57916;51.996;5.180;2024-01-30T04:08:56;15.07;;;10.05;;
70455;SDS011;57916;51.996;5.180;2024-01-30T04:11:23;15.73;;;9.65;;
70455;SDS011;57916;51.996;5.180;2024-01-30T04:13:50;15.00;;;9.48;;
70455;SDS011;57916;51.996;5.180;2024-01-30T04:16:20;18.75;;;9.82;;
70455;SDS011;57916;51.996;5.180;2024-01-30T04:18:49;13.15;;;9.10;;
70455;SDS011;57916;51.996;5.180;2024-01-30T04:21:16;15.05;;;9.52;;
70455;SDS011;57916;51.996;5.180;2024-01-30T04:23:43;15.50;;;9.48;;
70455;SDS011;57916;51.996;5.180;2024-01-30T04:26:10;18.45;;;10.05;;
70455;SDS011;57916;51.996;5.180;2024-01-30T04:28:37;17.25;;;10.23;;
70455;SDS011;57916;51.996;5.180;2024-01-30T04:31:04;14.17;;;8.80;;
70455;SDS011;57916;51.996;5.180;2024-01-30T04:33:31;17.63;;;9.67;;
70455;SDS011;57916;51.996;5.180;2024-01-30T04:35:58;15.38;;;9.60;;
70455;SDS011;57916;51.996;5.180;2024-01-30T04:38:25;15.98;;;9.30;;
70455;SDS011;57916;51.996;5.180;2024-01-30T04:40:52;11.68;;;9.15;;
70455;SDS011;57916;51.996;5.180;2024-01-30T04:43:20;15.48;;;8.82;;
70455;SDS011;57916;51.996;5.180;2024-01-30T04:45:48;16.80;;;8.85;;
70455;SDS011;57916;51.996;5.180;2024-01-30T04:48:15;13.40;;;9.13;;
70455;SDS011;57916;51.996;5.180;2024-01-30T04:50:43;13.10;;;9.10;;
70455;SDS011;57916;51.996;5.180;2024-01-30T04:53:10;13.18;;;9.00;;
70455;SDS011;57916;51.996;5.180;2024-01-30T04:55:36;12.68;;;9.07;;
70455;SDS011;57916;51.996;5.180;2024-01-30T04:58:04;13.60;;;9.07;;
70455;SDS011;57916;51.996;5.180;2024-01-30T05:00:31;13.40;;;8.98;;
70455;SDS011;57916;51.996;5.180;2024-01-30T05:02:58;14.85;;;9.40;;
70455;SDS011;57916;51.996;5.180;2024-01-30T05:05:25;14.10;;;8.85;;
70455;SDS011;57916;51.996;5.180;2024-01-30T05:07:52;15.73;;;9.15;;
70455;SDS011;57916;51.996;5.180;2024-01-30T05:10:19;13.48;;;9.13;;
70455;SDS011;57916;51.996;5.180;2024-01-30T05:12:46;12.30;;;9.10;;
70455;SDS011;57916;51.996;5.180;2024-01-30T05:15:13;13.05;;;9.13;;
70455;SDS011;57916;51.996;5.180;2024-01-30T05:17:40;16.10;;;9.30;;
70455;SDS011;57916;51.996;5.180;2024-01-30T05:20:07;14.30;;;9.07;;
70455;SDS011;57916;51.996;5.180;2024-01-30T05:22:35;13.82;;;8.65;;
70455;SDS011;57916;51.996;5.180;2024-01-30T05:25:04;13.73;;;8.93;;
70455;SDS011;57916;51.996;5.180;2024-01-30T05:27:31;14.85;;;8.35;;
70455;SDS011;57916;51.996;5.180;2024-01-30T05:29:58;13.57;;;9.53;;
70455;SDS011;57916;51.996;5.180;2024-01-30T05:32:25;12.95;;;8.48;;
70455;SDS011;57916;51.996;5.180;2024-01-30T05:34:52;15.88;;;8.85;;
70455;SDS011;57916;51.996;5.180;2024-01-30T05:37:19;17.15;;;9.55;;
70455;SDS011;57916;51.996;5.180;2024-01-30T05:39:47;13.13;;;8.80;;
70455;SDS011;57916;51.996;5.180;2024-01-30T05:42:14;11.52;;;8.30;;
70455;SDS011;57916;51.996;5.180;2024-01-30T05:44:43;13.80;;;8.93;;
70455;SDS011;57916;51.996;5.180;2024-01-30T05:47:10;17.40;;;9.32;;
70455;SDS011;57916;51.996;5.180;2024-01-30T05:49:37;14.60;;;9.25;;
70455;SDS011;57916;51.996;5.180;2024-01-30T05:52:05;12.63;;;8.40;;
70455;SDS011;57916;51.996;5.180;2024-01-30T05:54:33;12.90;;;8.90;;
70455;SDS011;57916;51.996;5.180;2024-01-30T05:57:00;12.65;;;8.70;;
70455;SDS011;57916;51.996;5.180;2024-01-30T05:59:27;14.05;;;8.75;;
70455;SDS011;57916;51.996;5.180;2024-01-30T06:01:54;13.73;;;8.60;;
70455;SDS011;57916;51.996;5.180;2024-01-30T06:04:21;14.13;;;8.45;;
70455;SDS011;57916;51.996;5.180;2024-01-30T06:06:48;15.50;;;8.32;;
70455;SDS011;57916;51.996;5.180;2024-01-30T06:09:15;10.85;;;8.40;;
70455;SDS011;57916;51.996;5.180;2024-01-30T06:11:42;14.27;;;8.65;;
70455;SDS011;57916;51.996;5.180;2024-01-30T06:14:09;12.13;;;8.40;;
70455;SDS011;57916;51.996;5.180;2024-01-30T06:16:36;14.27;;;8.50;;
70455;SDS011;57916;51.996;5.180;2024-01-30T06:19:03;14.38;;;7.97;;
70455;SDS011;57916;51.996;5.180;2024-01-30T06:21:30;11.90;;;8.40;;
70455;SDS011;57916;51.996;5.180;2024-01-30T06:23:58;16.07;;;8.30;;
70455;SDS011;57916;51.996;5.180;2024-01-30T06:26:25;14.77;;;8.40;;
70455;SDS011;57916;51.996;5.180;2024-01-30T06:28:52;11.95;;;8.40;;
70455;SDS011;57916;51.996;5.180;2024-01-30T06:31:19;12.20;;;8.17;;
70455;SDS011;57916;51.996;5.180;2024-01-30T06:33:47;12.35;;;8.50;;
70455;SDS011;57916;51.996;5.180;2024-01-30T06:36:14;12.48;;;7.95;;
70455;SDS011;57916;51.996;5.180;2024-01-30T06:38:41;14.23;;;8.10;;
70455;SDS011;57916;51.996;5.180;2024-01-30T06:41:08;11.93;;;7.63;;
70455;SDS011;57916;51.996;5.180;2024-01-30T06:43:35;12.70;;;7.85;;
70455;SDS011;57916;51.996;5.180;2024-01-30T06:46:02;12.15;;;8.20;;
70455;SDS011;57916;51.996;5.180;2024-01-30T06:48:29;13.10;;;7.70;;
70455;SDS011;57916;51.996;5.180;2024-01-30T06:50:57;17.63;;;8.13;;
70455;SDS011;57916;51.996;5.180;2024-01-30T06:53:24;12.43;;;7.80;;
70455;SDS011;57916;51.996;5.180;2024-01-30T06:55:53;15.90;;;8.45;;
70455;SDS011;57916;51.996;5.180;2024-01-30T06:58:19;12.80;;;7.78;;
70455;SDS011;57916;51.996;5.180;2024-01-30T07:00:47;15.43;;;8.15;;
70455;SDS011;57916;51.996;5.180;2024-01-30T07:03:14;15.45;;;8.00;;
70455;SDS011;57916;51.996;5.180;2024-01-30T07:05:41;14.82;;;7.90;;
70455;SDS011;57916;51.996;5.180;2024-01-30T07:08:08;13.80;;;7.82;;
70455;SDS011;57916;51.996;5.180;2024-01-30T07:10:35;13.18;;;7.53;;
70455;SDS011;57916;51.996;5.180;2024-01-30T07:13:02;13.40;;;7.88;;
70455;SDS011;57916;51.996;5.180;2024-01-30T07:15:31;12.68;;;7.82;;
70455;SDS011;57916;51.996;5.180;2024-01-30T07:17:59;11.55;;;7.90;;
70455;SDS011;57916;51.996;5.180;2024-01-30T07:20:26;13.43;;;7.97;;
70455;SDS011;57916;51.996;5.180;2024-01-30T07:22:53;10.88;;;7.70;;
70455;SDS011;57916;51.996;5.180;2024-01-30T07:25:20;14.00;;;7.82;;
70455;SDS011;57916;51.996;5.180;2024-01-30T07:27:48;14.85;;;7.85;;
70455;SDS011;57916;51.996;5.180;2024-01-30T07:30:15;13.38;;;7.65;;
70455;SDS011;57916;51.996;5.180;2024-01-30T07:32:43;11.17;;;7.50;;
70455;SDS011;57916;51.996;5.180;2024-01-30T07:35:10;13.05;;;7.60;;
70455;SDS011;57916;51.996;5.180;2024-01-30T07:37:38;10.45;;;7.45;;
70455;SDS011;57916;51.996;5.180;2024-01-30T07:40:05;14.05;;;8.30;;
70455;SDS011;57916;51.996;5.180;2024-01-30T07:42:33;15.82;;;8.30;;
70455;SDS011;57916;51.996;5.180;2024-01-30T07:45:00;15.80;;;8.07;;
70455;SDS011;57916;51.996;5.180;2024-01-30T07:47:27;19.13;;;7.80;;
70455;SDS011;57916;51.996;5.180;2024-01-30T07:49:54;13.07;;;7.35;;
70455;SDS011;57916;51.996;5.180;2024-01-30T07:52:21;11.30;;;7.60;;
70455;SDS011;57916;51.996;5.180;2024-01-30T07:54:49;13.25;;;8.45;;
70455;SDS011;57916;51.996;5.180;2024-01-30T07:57:17;15.95;;;8.23;;
70455;SDS011;57916;51.996;5.180;2024-01-30T07:59:44;13.50;;;7.97;;
70455;SDS011;57916;51.996;5.180;2024-01-30T08:02:12;16.97;;;8.07;;
70455;SDS011;57916;51.996;5.180;2024-01-30T08:04:39;16.73;;;8.25;;
70455;SDS011;57916;51.996;5.180;2024-01-30T08:07:06;14.10;;;7.63;;
70455;SDS011;57916;51.996;5.180;2024-01-30T08:09:34;18.30;;;8.40;;
70455;SDS011;57916;51.996;5.180;2024-01-30T08:12:01;17.88;;;7.90;;
70455;SDS011;57916;51.996;5.180;2024-01-30T08:14:28;11.93;;;7.78;;
70455;SDS011;57916;51.996;5.180;2024-01-30T08:16:55;17.52;;;7.90;;
70455;SDS011;57916;51.996;5.180;2024-01-30T08:19:22;15.88;;;8.13;;
70455;SDS011;57916;51.996;5.180;2024-01-30T08:21:49;14.90;;;7.70;;
70455;SDS011;57916;51.996;5.180;2024-01-30T08:24:16;16.52;;;8.00;;
70455;SDS011;57916;51.996;5.180;2024-01-30T08:26:43;19.73;;;8.30;;
70455;SDS011;57916;51.996;5.180;2024-01-30T08:29:10;20.08;;;7.78;;
70455;SDS011;57916;51.996;5.180;2024-01-30T08:31:38;25.38;;;7.93;;
70455;SDS011;57916;51.996;5.180;2024-01-30T08:34:05;20.80;;;8.43;;
70455;SDS011;57916;51.996;5.180;2024-01-30T08:36:32;17.70;;;7.82;;
70455;SDS011;57916;51.996;5.180;2024-01-30T08:38:59;19.23;;;8.20;;
70455;SDS011;57916;51.996;5.180;2024-01-30T08:41:30;15.65;;;7.82;;
70455;SDS011;57916;51.996;5.180;2024-01-30T08:43:57;16.13;;;8.38;;
70455;SDS011;57916;51.996;5.180;2024-01-30T08:46:24;14.38;;;7.70;;
70455;SDS011;57916;51.996;5.180;2024-01-30T08:48:51;17.10;;;7.87;;
70455;SDS011;57916;51.996;5.180;2024-01-30T08:51:19;23.05;;;8.20;;
70455;SDS011;57916;51.996;5.180;2024-01-30T08:53:46;17.48;;;8.57;;
70455;SDS011;57916;51.996;5.180;2024-01-30T08:56:13;15.93;;;8.02;;
70455;SDS011;57916;51.996;5.180;2024-01-30T08:58:42;13.73;;;7.70;;
70455;SDS011;57916;51.996;5.180;2024-01-30T09:01:09;14.30;;;7.85;;
70455;SDS011;57916;51.996;5.180;2024-01-30T09:03:36;15.03;;;7.90;;
70455;SDS011;57916;51.996;5.180;2024-01-30T09:06:09;13.48;;;7.90;;
70455;SDS011;57916;51.996;5.180;2024-01-30T09:08:38;12.38;;;7.75;;
70455;SDS011;57916;51.996;5.180;2024-01-30T09:11:12;19.65;;;7.97;;
70455;SDS011;57916;51.996;5.180;2024-01-30T09:13:40;12.57;;;7.53;;
70455;SDS011;57916;51.996;5.180;2024-01-30T09:16:07;14.77;;;7.57;;
70455;SDS011;57916;51.996;5.180;2024-01-30T09:18:34;14.43;;;7.57;;
70455;SDS011;57916;51.996;5.180;2024-01-30T09:21:01;19.15;;;8.30;;
70455;SDS011;57916;51.996;5.180;2024-01-30T09:23:28;13.85;;;7.55;;
70455;SDS011;57916;51.996;5.180;2024-01-30T09:25:55;19.48;;;7.80;;
70455;SDS011;57916;51.996;5.180;2024-01-30T09:28:22;15.20;;;7.95;;
70455;SDS011;57916;51.996;5.180;2024-01-30T09:30:54;15.32;;;7.30;;
70455;SDS011;57916;51.996;5.180;2024-01-30T09:33:21;16.27;;;7.82;;
70455;SDS011;57916;51.996;5.180;2024-01-30T09:35:49;15.10;;;7.53;;
70455;SDS011;57916;51.996;5.180;2024-01-30T09:38:15;15.07;;;7.78;;
70455;SDS011;57916;51.996;5.180;2024-01-30T09:40:42;18.88;;;7.93;;
70455;SDS011;57916;51.996;5.180;2024-01-30T09:43:13;18.13;;;7.85;;
70455;SDS011;57916;51.996;5.180;2024-01-30T09:45:44;16.17;;;7.85;;
70455;SDS011;57916;51.996;5.180;2024-01-30T09:48:13;16.03;;;7.97;;
70455;SDS011;57916;51.996;5.180;2024-01-30T09:50:41;15.80;;;7.93;;
70455;SDS011;57916;51.996;5.180;2024-01-30T09:53:08;12.88;;;7.50;;
70455;SDS011;57916;51.996;5.180;2024-01-30T09:55:35;12.77;;;7.93;;
70455;SDS011;57916;51.996;5.180;2024-01-30T09:58:03;20.85;;;8.23;;
70455;SDS011;57916;51.996;5.180;2024-01-30T10:00:30;14.88;;;7.75;;
70455;SDS011;57916;51.996;5.180;2024-01-30T10:02:57;20.83;;;8.25;;
70455;SDS011;57916;51.996;5.180;2024-01-30T10:05:26;19.13;;;7.57;;
70455;SDS011;57916;51.996;5.180;2024-01-30T10:07:55;16.50;;;7.85;;
70455;SDS011;57916;51.996;5.180;2024-01-30T10:10:24;20.48;;;8.07;;
70455;SDS011;57916;51.996;5.180;2024-01-30T10:12:51;15.52;;;7.28;;
70455;SDS011;57916;51.996;5.180;2024-01-30T10:15:18;19.45;;;7.90;;
70455;SDS011;57916;51.996;5.180;2024-01-30T10:17:45;14.07;;;7.30;;
70455;SDS011;57916;51.996;5.180;2024-01-30T10:20:13;17.17;;;7.30;;
70455;SDS011;57916;51.996;5.180;2024-01-30T10:22:40;20.63;;;7.60;;
70455;SDS011;57916;51.996;5.180;2024-01-30T10:25:10;17.33;;;7.13;;
70455;SDS011;57916;51.996;5.180;2024-01-30T10:27:39;13.43;;;6.85;;
70455;SDS011;57916;51.996;5.180;2024-01-30T10:30:07;14.75;;;6.70;;
70455;SDS011;57916;51.996;5.180;2024-01-30T10:32:34;13.30;;;6.75;;
70455;SDS011;57916;51.996;5.180;2024-01-30T10:35:01;12.65;;;6.43;;
70455;SDS011;57916;51.996;5.180;2024-01-30T10:37:29;15.52;;;6.90;;
70455;SDS011;57916;51.996;5.180;2024-01-30T10:40:01;17.57;;;6.90;;
70455;SDS011;57916;51.996;5.180;2024-01-30T10:42:33;12.35;;;6.75;;
70455;SDS011;57916;51.996;5.180;2024-01-30T10:45:06;13.60;;;6.95;;
70455;SDS011;57916;51.996;5.180;2024-01-30T10:47:35;19.42;;;6.75;;
70455;SDS011;57916;51.996;5.180;2024-01-30T10:50:04;13.38;;;6.90;;
70455;SDS011;57916;51.996;5.180;2024-01-30T10:52:32;15.18;;;6.80;;
70455;SDS011;57916;51.996;5.180;2024-01-30T10:54:59;17.30;;;7.32;;
70455;SDS011;57916;51.996;5.180;2024-01-30T10:57:27;15.60;;;6.68;;
70455;SDS011;57916;51.996;5.180;2024-01-30T10:59:58;15.05;;;6.35;;
70455;SDS011;57916;51.996;5.180;2024-01-30T11:02:27;19.00;;;6.32;;
70455;SDS011;57916;51.996;5.180;2024-01-30T11:04:58;15.43;;;5.82;;
70455;SDS011;57916;51.996;5.180;2024-01-30T11:07:27;12.07;;;5.75;;
70455;SDS011;57916;51.996;5.180;2024-01-30T11:12:31;10.55;;;4.10;;
70455;SDS011;57916;51.996;5.180;2024-01-30T11:20:26;7.55;;;3.80;;
70455;SDS011;57916;51.996;5.180;2024-01-30T11:22:57;8.63;;;4.07;;
70455;SDS011;57916;51.996;5.180;2024-01-30T11:25:25;6.87;;;2.73;;
70455;SDS011;57916;51.996;5.180;2024-01-30T11:27:53;9.35;;;2.58;;
70455;SDS011;57916;51.996;5.180;2024-01-30T11:30:22;9.90;;;2.80;;
70455;SDS011;57916;51.996;5.180;2024-01-30T11:35:38;5.47;;;2.67;;
70455;SDS011;57916;51.996;5.180;2024-01-30T11:38:07;6.00;;;2.30;;
70455;SDS011;57916;51.996;5.180;2024-01-30T11:40:37;8.48;;;2.22;;
70455;SDS011;57916;51.996;5.180;2024-01-30T11:43:06;5.45;;;1.80;;
70455;SDS011;57916;51.996;5.180;2024-01-30T11:45:34;6.43;;;1.60;;
70455;SDS011;57916;51.996;5.180;2024-01-30T11:48:03;8.85;;;2.30;;
70455;SDS011;57916;51.996;5.180;2024-01-30T11:50:35;8.30;;;2.20;;
70455;SDS011;57916;51.996;5.180;2024-01-30T11:53:04;8.63;;;1.80;;
70455;SDS011;57916;51.996;5.180;2024-01-30T11:55:32;6.53;;;1.47;;
70455;SDS011;57916;51.996;5.180;2024-01-30T11:58:01;4.75;;;1.45;;
70455;SDS011;57916;51.996;5.180;2024-01-30T12:00:29;5.80;;;2.00;;
70455;SDS011;57916;51.996;5.180;2024-01-30T12:03:01;3.63;;;2.25;;
70455;SDS011;57916;51.996;5.180;2024-01-30T12:05:30;4.83;;;2.57;;
70455;SDS011;57916;51.996;5.180;2024-01-30T12:07:57;7.00;;;2.45;;
70455;SDS011;57916;51.996;5.180;2024-01-30T12:10:28;5.78;;;2.40;;
70455;SDS011;57916;51.996;5.180;2024-01-30T12:12:56;6.93;;;2.40;;
70455;SDS011;57916;51.996;5.180;2024-01-30T12:15:24;4.35;;;2.45;;
70455;SDS011;57916;51.996;5.180;2024-01-30T12:17:51;5.00;;;2.22;;
70455;SDS011;57916;51.996;5.180;2024-01-30T12:20:18;5.15;;;2.28;;
70455;SDS011;57916;51.996;5.180;2024-01-30T12:22:47;8.05;;;2.60;;
70455;SDS011;57916;51.996;5.180;2024-01-30T12:25:16;4.65;;;2.30;;
70455;SDS011;57916;51.996;5.180;2024-01-30T12:27:45;4.20;;;2.05;;
70455;SDS011;57916;51.996;5.180;2024-01-30T12:30:17;8.27;;;2.47;;
70455;SDS011;57916;51.996;5.180;2024-01-30T12:32:47;9.60;;;2.20;;
70455;SDS011;57916;51.996;5.180;2024-01-30T12:35:17;11.07;;;2.10;;
70455;SDS011;57916;51.996;5.180;2024-01-30T12:37:46;8.93;;;1.77;;
70455;SDS011;57916;51.996;5.180;2024-01-30T12:40:14;8.23;;;1.58;;
70455;SDS011;57916;51.996;5.180;2024-01-30T12:42:42;6.63;;;1.55;;
70455;SDS011;57916;51.996;5.180;2024-01-30T12:45:09;7.22;;;1.88;;
70455;SDS011;57916;51.996;5.180;2024-01-30T12:47:36;7.90;;;1.52;;
70455;SDS011;57916;51.996;5.180;2024-01-30T12:50:04;5.80;;;1.50;;
70455;SDS011;57916;51.996;5.180;2024-01-30T12:52:31;7.55;;;1.90;;
70455;SDS011;57916;51.996;5.180;2024-01-30T12:54:58;8.40;;;1.60;;
70455;SDS011;57916;51.996;5.180;2024-01-30T12:57:25;6.00;;;1.92;;
70455;SDS011;57916;51.996;5.180;2024-01-30T12:59:52;6.82;;;1.88;;
70455;SDS011;57916;51.996;5.180;2024-01-30T13:02:19;5.75;;;1.92;;
70455;SDS011;57916;51.996;5.180;2024-01-30T13:04:46;7.00;;;1.65;;
70455;SDS011;57916;51.996;5.180;2024-01-30T13:07:16;3.65;;;2.30;;
70455;SDS011;57916;51.996;5.180;2024-01-30T13:09:43;10.18;;;2.97;;
70455;SDS011;57916;51.996;5.180;2024-01-30T13:12:10;8.63;;;2.08;;
70455;SDS011;57916;51.996;5.180;2024-01-30T13:14:37;9.18;;;2.08;;
70455;SDS011;57916;51.996;5.180;2024-01-30T13:17:04;5.17;;;2.00;;
70455;SDS011;57916;51.996;5.180;2024-01-30T13:19:31;5.38;;;1.67;;
70455;SDS011;57916;51.996;5.180;2024-01-30T13:21:58;5.28;;;1.73;;
70455;SDS011;57916;51.996;5.180;2024-01-30T13:24:25;2.40;;;1.00;;
70455;SDS011;57916;51.996;5.180;2024-01-30T13:26:53;3.45;;;1.10;;
70455;SDS011;57916;51.996;5.180;2024-01-30T13:29:20;5.27;;;0.87;;
70455;SDS011;57916;51.996;5.180;2024-01-30T13:31:47;4.03;;;0.80;;
70455;SDS011;57916;51.996;5.180;2024-01-30T13:34:14;3.25;;;0.60;;
70455;SDS011;57916;51.996;5.180;2024-01-30T13:36:41;5.35;;;0.80;;
70455;SDS011;57916;51.996;5.180;2024-01-30T13:39:09;5.57;;;0.93;;
70455;SDS011;57916;51.996;5.180;2024-01-30T13:41:38;4.65;;;0.93;;
70455;SDS011;57916;51.996;5.180;2024-01-30T13:44:05;2.15;;;0.57;;
70455;SDS011;57916;51.996;5.180;2024-01-30T13:46:33;2.67;;;0.80;;
70455;SDS011;57916;51.996;5.180;2024-01-30T13:49:00;2.33;;;0.70;;
70455;SDS011;57916;51.996;5.180;2024-01-30T13:51:28;4.43;;;0.90;;
70455;SDS011;57916;51.996;5.180;2024-01-30T13:53:55;1.50;;;0.95;;
70455;SDS011;57916;51.996;5.180;2024-01-30T13:56:22;2.67;;;1.00;;
70455;SDS011;57916;51.996;5.180;2024-01-30T13:58:49;4.15;;;1.00;;
70455;SDS011;57916;51.996;5.180;2024-01-30T14:01:16;3.00;;;0.90;;
70455;SDS011;57916;51.996;5.180;2024-01-30T14:03:44;4.50;;;1.00;;
70455;SDS011;57916;51.996;5.180;2024-01-30T14:06:11;6.60;;;0.95;;
70455;SDS011;57916;51.996;5.180;2024-01-30T14:08:39;5.15;;;1.15;;
70455;SDS011;57916;51.996;5.180;2024-01-30T14:11:11;5.03;;;1.00;;
70455;SDS011;57916;51.996;5.180;2024-01-30T14:13:38;4.95;;;1.30;;
70455;SDS011;57916;51.996;5.180;2024-01-30T14:16:05;3.88;;;1.13;;
70455;SDS011;57916;51.996;5.180;2024-01-30T14:18:33;5.95;;;1.40;;
70455;SDS011;57916;51.996;5.180;2024-01-30T14:21:00;3.90;;;1.13;;
70455;SDS011;57916;51.996;5.180;2024-01-30T14:23:27;4.65;;;1.10;;
70455;SDS011;57916;51.996;5.180;2024-01-30T14:25:54;5.00;;;1.20;;
70455;SDS011;57916;51.996;5.180;2024-01-30T14:28:21;6.35;;;1.42;;
70455;SDS011;57916;51.996;5.180;2024-01-30T14:30:48;3.70;;;1.30;;
70455;SDS011;57916;51.996;5.180;2024-01-30T14:33:15;6.65;;;1.35;;
70455;SDS011;57916;51.996;5.180;2024-01-30T14:35:42;13.85;;;2.20;;
70455;SDS011;57916;51.996;5.180;2024-01-30T14:38:10;5.60;;;1.40;;
70455;SDS011;57916;51.996;5.180;2024-01-30T14:40:37;4.15;;;1.52;;
70455;SDS011;57916;51.996;5.180;2024-01-30T14:43:05;7.03;;;1.85;;
70455;SDS011;57916;51.996;5.180;2024-01-30T14:45:32;4.68;;;1.50;;